Time;durP1;ratioP1;P1;durP2;ratioP2;P2;SDS_P1;SDS_P2;PMS_P1;PMS_P2;Temp;Humidity;BMP_temperature;BMP_pressure;BME280_temperature;BME280_humidity;BME280_pressure;Samples;Min_cycle;Max_cycle;Signal;HPM_P1;HPM_P2
2022/06/07 00:02:24;;;;;;;2.93;2.73;;;23.90;51.40;;;;;;5029893;28;20428;-45
2022/06/07 00:04:50;;;;;;;2.80;2.60;;;24.00;52.20;;;;;;5030317;28;20486;-44
2022/06/07 00:07:16;;;;;;;2.90;2.70;;;24.00;53.00;;;;;;5029495;28;20489;-45
2022/06/07 00:09:41;;;;;;;2.60;2.40;;;24.00;53.10;;;;;;5030222;28;20969;-44
2022/06/07 00:12:07;;;;;;;2.60;2.50;;;24.00;53.40;;;;;;5029775;28;20201;-44
2022/06/07 00:14:34;;;;;;;2.80;2.50;;;24.00;53.30;;;;;;5030118;28;20197;-44
2022/06/07 00:17:01;;;;;;;2.47;2.37;;;24.00;53.00;;;;;;5029113;28;20979;-44
2022/06/07 00:19:27;;;;;;;2.73;2.30;;;24.00;52.80;;;;;;5030084;28;20432;-44
2022/06/07 00:21:53;;;;;;;2.30;2.20;;;24.00;52.80;;;;;;5029495;28;20435;-44
2022/06/07 00:24:19;;;;;;;5.13;3.03;;;24.00;52.80;;;;;;5028601;28;20225;-48
2022/06/07 00:26:46;;;;;;;5.33;2.80;;;24.00;52.90;;;;;;5029246;28;20258;-44
2022/06/07 00:29:13;;;;;;;2.30;2.20;;;24.00;53.10;;;;;;5029913;28;20915;-44
2022/06/07 00:31:42;;;;;;;2.53;2.33;;;24.00;52.90;;;;;;5029377;28;20424;-44
2022/06/07 00:34:08;;;;;;;2.83;2.50;;;24.00;52.90;;;;;;5030008;28;20424;-44
2022/06/07 00:36:35;;;;;;;2.43;2.10;;;24.00;52.40;;;;;;5028918;28;20523;-43
2022/06/07 00:39:01;;;;;;;2.40;2.20;;;23.80;51.10;;;;;;5030117;28;20511;-44
2022/06/07 00:41:27;;;;;;;2.87;1.90;;;23.80;51.40;;;;;;5029114;28;20423;-44
2022/06/07 00:44:17;;;;;;;3.93;2.27;;;23.90;51.00;;;;;;5032603;28;20844;-44
2022/06/07 00:46:46;;;;;;;2.37;2.17;;;23.90;50.60;;;;;;5033093;28;20612;-44
2022/06/07 00:49:17;;;;;;;2.77;1.63;;;23.70;49.30;;;;;;5033902;28;21027;-44
2022/06/07 00:51:46;;;;;;;2.00;1.63;;;23.60;48.80;;;;;;5031636;28;20519;-44
2022/06/07 00:54:25;;;;;;;4.83;2.00;;;23.40;48.80;;;;;;5034117;28;20431;-43
2022/06/07 00:56:51;;;;;;;2.27;1.30;;;23.50;48.90;;;;;;5026052;28;20439;-47
2022/06/07 00:59:17;;;;;;;1.80;1.67;;;23.60;49.00;;;;;;5033863;28;20494;-43
2022/06/07 01:01:43;;;;;;;1.40;1.30;;;23.70;48.80;;;;;;5033034;28;20853;-44
2022/06/07 01:04:08;;;;;;;1.70;1.53;;;23.70;48.50;;;;;;5033572;28;20235;-44
2022/06/07 01:12:04;;;;;;;3.43;1.73;;;23.00;49.00;;;;;;5033066;28;20431;-44
2022/06/07 01:14:29;;;;;;;3.17;1.37;;;23.00;49.20;;;;;;5033599;28;20917;-44
2022/06/07 01:16:56;;;;;;;1.30;1.20;;;22.90;49.20;;;;;;5032793;28;20515;-44
2022/06/07 01:19:21;;;;;;;2.07;1.30;;;23.00;49.00;;;;;;5031572;28;20198;-44
2022/06/07 01:21:47;;;;;;;1.80;1.37;;;23.00;48.80;;;;;;5033084;28;21005;-44
2022/06/07 01:24:15;;;;;;;1.83;1.33;;;23.10;48.80;;;;;;5033557;28;20232;-44
2022/06/07 01:26:42;;;;;;;1.57;1.30;;;22.90;49.10;;;;;;5032422;28;20596;-44
2022/06/07 01:29:07;;;;;;;1.93;1.47;;;22.80;49.40;;;;;;5033522;28;20428;-44
2022/06/07 01:31:33;;;;;;;3.40;1.37;;;23.00;49.40;;;;;;5032421;28;20825;-45
2022/06/07 01:33:59;;;;;;;1.67;1.20;;;23.10;49.00;;;;;;5033185;28;20189;-44
2022/06/07 01:36:25;;;;;;;1.03;1.03;;;23.10;48.70;;;;;;5032157;28;20736;-44
2022/06/07 01:41:53;;;;;;;1.40;1.30;;;23.00;48.60;;;;;;5033258;28;20522;-46
2022/06/07 01:41:55;;;;;;;1.20;1.20;;;23.00;48.30;;;;;;5032470;28;20626;-44
2022/06/07 01:44:26;;;;;;;1.30;1.20;;;23.00;48.30;;;;;;5031610;28;20480;-44
2022/06/07 01:46:53;;;;;;;2.00;1.40;;;22.70;49.00;;;;;;5032153;28;20443;-44
2022/06/07 01:49:20;;;;;;;1.17;1.17;;;22.90;49.30;;;;;;5032913;28;20502;-45
2022/06/07 01:51:45;;;;;;;1.60;1.43;;;22.70;49.80;;;;;;5032208;28;20909;-44
2022/06/07 01:54:13;;;;;;;1.90;1.20;;;22.90;49.70;;;;;;5032665;28;20507;-44
2022/06/07 01:56:39;;;;;;;1.50;1.40;;;23.00;49.20;;;;;;5031729;28;20215;-44
2022/06/07 01:59:06;;;;;;;1.47;1.37;;;22.80;48.60;;;;;;5032488;28;20481;-43
2022/06/07 02:01:32;;;;;;;2.20;1.10;;;22.90;48.70;;;;;;5032004;28;20507;-44
2022/06/07 02:03:58;;;;;;;1.10;1.00;;;23.00;48.60;;;;;;5032892;28;20940;-44
2022/06/07 02:06:24;;;;;;;1.80;1.10;;;22.90;48.40;;;;;;5031596;28;20215;-43
2022/06/07 02:08:50;;;;;;;1.73;1.10;;;22.90;48.30;;;;;;5032403;28;20682;-43
2022/06/07 02:11:21;;;;;;;0.90;0.90;;;22.90;48.30;;;;;;5030694;28;20428;-48
2022/06/07 02:13:47;;;;;;;1.97;1.00;;;22.70;48.40;;;;;;5032465;28;20653;-44
2022/06/07 02:16:14;;;;;;;3.07;1.00;;;22.70;48.30;;;;;;5031487;28;20424;-45
2022/06/07 02:18:40;;;;;;;1.33;1.20;;;22.80;48.40;;;;;;5032143;28;20429;-43
2022/06/07 02:21:06;;;;;;;1.30;1.20;;;22.80;48.50;;;;;;5031901;28;20522;-44
2022/06/07 02:23:34;;;;;;;1.37;1.13;;;22.80;48.70;;;;;;5032398;28;20217;-44
2022/06/07 02:26:10;;;;;;;1.37;1.20;;;22.80;48.60;;;;;;5031450;28;20424;-44
2022/06/07 02:28:40;;;;;;;3.13;1.30;;;22.70;49.00;;;;;;5031874;28;20430;-44
2022/06/07 02:31:07;;;;;;;1.10;1.10;;;22.70;48.90;;;;;;5031501;28;20444;-44
2022/06/07 02:33:34;;;;;;;1.30;1.20;;;22.70;49.10;;;;;;5031939;28;20494;-44
2022/06/07 02:36:00;;;;;;;1.20;1.10;;;22.60;49.20;;;;;;5031528;28;20547;-45
2022/06/07 02:38:26;;;;;;;1.20;1.10;;;22.60;49.00;;;;;;5029916;28;20419;-44
2022/06/07 02:40:53;;;;;;;1.17;0.90;;;22.70;48.90;;;;;;5031387;28;20435;-44
2022/06/07 02:43:19;;;;;;;2.60;1.10;;;22.70;48.90;;;;;;5031907;28;20256;-44
2022/06/07 02:45:45;;;;;;;2.50;1.33;;;22.70;48.90;;;;;;5031461;28;20469;-45
2022/06/07 02:48:10;;;;;;;1.33;1.20;;;22.70;48.90;;;;;;5031208;28;20936;-44
2022/06/07 02:50:37;;;;;;;4.00;1.20;;;22.60;48.90;;;;;;5031798;28;20560;-44
2022/06/07 02:53:03;;;;;;;2.07;1.30;;;22.60;48.90;;;;;;5031265;28;20244;-43
2022/06/07 02:55:29;;;;;;;1.40;1.30;;;22.60;48.90;;;;;;5031396;28;20982;-45
2022/06/07 02:57:55;;;;;;;1.30;1.20;;;22.60;49.00;;;;;;5030647;28;20420;-44
2022/06/07 03:00:21;;;;;;;1.10;1.00;;;22.70;48.80;;;;;;5031468;28;20233;-44
2022/06/07 03:02:48;;;;;;;1.10;1.10;;;22.70;48.80;;;;;;5031094;28;20599;-46
2022/06/07 03:05:14;;;;;;;1.20;1.10;;;22.80;49.00;;;;;;5029229;28;20332;-47
2022/06/07 03:07:41;;;;;;;1.30;1.00;;;22.80;49.10;;;;;;5030018;28;20786;-44
2022/06/07 03:10:09;;;;;;;1.67;1.33;;;22.80;49.30;;;;;;5031345;28;20432;-44
2022/06/07 03:12:35;;;;;;;2.20;1.20;;;22.80;49.50;;;;;;5030570;28;20447;-47
2022/06/07 03:15:02;;;;;;;2.80;1.30;;;22.80;49.70;;;;;;5031254;28;20436;-44
2022/06/07 03:17:27;;;;;;;0.87;0.83;;;22.80;50.00;;;;;;5030353;28;20424;-44
2022/06/07 03:19:53;;;;;;;1.30;1.20;;;22.80;50.00;;;;;;5031348;28;21107;-44
2022/06/07 03:22:19;;;;;;;1.20;1.10;;;22.60;49.50;;;;;;5030766;28;20706;-44
2022/06/07 03:24:45;;;;;;;2.40;1.40;;;22.50;49.80;;;;;;5030798;28;20267;-44
2022/06/07 03:27:12;;;;;;;1.30;1.20;;;22.50;50.00;;;;;;5030024;28;20432;-44
2022/06/07 03:29:38;;;;;;;1.43;1.00;;;22.60;50.30;;;;;;5031160;28;20296;-45
2022/06/07 03:32:06;;;;;;;2.93;1.40;;;22.60;50.40;;;;;;5028481;28;20523;-44
2022/06/07 03:34:32;;;;;;;1.70;1.53;;;22.60;51.50;;;;;;5030797;28;20201;-44
2022/06/07 03:36:58;;;;;;;2.03;1.43;;;22.60;52.20;;;;;;5029933;28;20937;-44
2022/06/07 03:39:24;;;;;;;2.50;1.70;;;22.60;52.60;;;;;;5030909;28;20459;-47
2022/06/07 03:41:49;;;;;;;2.63;1.50;;;22.60;52.90;;;;;;5030143;28;20200;-44
2022/06/07 03:44:15;;;;;;;2.20;1.50;;;22.60;52.90;;;;;;5030655;28;20227;-46
2022/06/07 03:46:43;;;;;;;1.33;1.20;;;22.60;53.40;;;;;;5029798;28;20201;-44
2022/06/07 03:49:09;;;;;;;1.40;1.30;;;22.60;53.40;;;;;;5030576;28;20189;-47
2022/06/07 03:51:35;;;;;;;2.30;1.70;;;22.60;53.30;;;;;;5029815;28;20450;-45
2022/06/07 03:54:02;;;;;;;1.60;1.50;;;22.60;53.50;;;;;;5030574;28;20563;-48
2022/06/07 03:56:28;;;;;;;1.90;1.80;;;22.00;55.20;;;;;;5029354;28;20459;-48
2022/06/07 03:58:54;;;;;;;1.87;1.70;;;21.70;56.60;;;;;;5028928;28;20861;-46
2022/06/07 04:01:21;;;;;;;1.90;1.80;;;21.30;57.70;;;;;;5029972;28;20239;-44
2022/06/07 04:03:49;;;;;;;2.10;1.90;;;21.10;59.00;;;;;;5030431;28;20487;-48
2022/06/07 04:06:20;;;;;;;1.80;1.70;;;21.00;59.80;;;;;;5029189;28;20424;-49
2022/06/07 04:08:47;;;;;;;5.13;1.90;;;21.10;59.70;;;;;;5030450;28;20420;-44
2022/06/07 04:11:14;;;;;;;2.27;2.07;;;21.20;59.60;;;;;;5029659;28;20456;-44
2022/06/07 04:13:39;;;;;;;2.30;1.80;;;21.00;59.70;;;;;;5030201;28;20466;-45
2022/06/07 04:16:07;;;;;;;2.50;2.07;;;21.00;60.20;;;;;;5029156;28;20436;-46
2022/06/07 04:18:32;;;;;;;2.23;2.10;;;21.00;60.10;;;;;;5029563;28;21245;-44
2022/06/07 04:20:59;;;;;;;1.83;1.73;;;21.00;60.30;;;;;;5029848;28;20515;-45
2022/06/07 04:23:25;;;;;;;3.80;2.00;;;21.10;60.30;;;;;;5030073;28;20217;-45
2022/06/07 04:25:51;;;;;;;2.60;2.33;;;21.10;60.10;;;;;;5027535;28;20431;-44
2022/06/07 04:28:17;;;;;;;2.87;2.20;;;21.20;59.80;;;;;;5030299;28;20644;-44
2022/06/07 04:30:45;;;;;;;3.00;2.30;;;21.10;60.30;;;;;;5029448;28;20459;-44
2022/06/07 04:33:14;;;;;;;3.40;1.90;;;21.10;60.00;;;;;;5029999;28;20813;-45
2022/06/07 04:35:42;;;;;;;3.30;1.67;;;21.20;60.00;;;;;;5028991;28;20439;-44
2022/06/07 04:38:08;;;;;;;2.67;2.13;;;21.40;59.70;;;;;;5029749;28;20435;-44
2022/06/07 04:40:35;;;;;;;3.90;2.13;;;21.50;59.30;;;;;;5030000;28;20490;-44
2022/06/07 04:43:00;;;;;;;2.57;1.63;;;21.50;59.00;;;;;;5029376;28;20493;-44
2022/06/07 04:45:26;;;;;;;2.20;2.10;;;21.60;58.80;;;;;;5029521;28;20451;-44
2022/06/07 04:47:52;;;;;;;4.33;1.77;;;21.70;58.40;;;;;;5028830;28;20189;-44
2022/06/07 04:50:19;;;;;;;1.90;1.47;;;21.80;58.10;;;;;;5030049;28;20908;-44
2022/06/07 04:52:45;;;;;;;2.33;1.80;;;21.90;57.80;;;;;;5027685;28;20189;-44
2022/06/07 04:55:12;;;;;;;2.00;1.80;;;21.90;57.60;;;;;;5029788;28;20428;-44
2022/06/07 04:57:38;;;;;;;3.43;1.80;;;22.00;58.10;;;;;;5028737;28;20442;-44
2022/06/07 05:00:06;;;;;;;1.80;1.70;;;22.00;57.20;;;;;;5029562;28;20968;-47
2022/06/07 05:02:32;;;;;;;2.20;1.67;;;22.00;57.10;;;;;;5028841;28;20189;-44
2022/06/07 05:04:58;;;;;;;4.00;1.80;;;22.00;57.10;;;;;;5029876;28;20489;-46
2022/06/07 05:07:23;;;;;;;1.60;1.50;;;22.10;57.00;;;;;;5028744;28;20185;-43
2022/06/07 05:09:49;;;;;;;2.10;1.57;;;22.10;57.00;;;;;;5029939;28;20729;-44
2022/06/07 05:12:15;;;;;;;2.10;1.90;;;22.10;57.10;;;;;;5028833;28;20185;-45
2022/06/07 05:14:44;;;;;;;1.73;1.63;;;22.10;56.90;;;;;;5029618;28;20720;-48
2022/06/07 05:17:09;;;;;;;4.70;1.97;;;22.00;57.30;;;;;;5028516;28;21591;-48
2022/06/07 05:19:35;;;;;;;3.20;1.50;;;21.90;57.50;;;;;;5028418;28;20432;-44
2022/06/07 05:22:02;;;;;;;1.97;1.80;;;21.80;57.60;;;;;;5028776;28;20186;-43
2022/06/07 05:24:27;;;;;;;2.23;1.70;;;21.60;58.70;;;;;;5028225;28;20726;-47
2022/06/07 05:26:56;;;;;;;2.10;1.90;;;21.70;58.30;;;;;;5028572;28;20435;-44
2022/06/07 05:29:40;;;;;;;2.53;2.30;;;21.70;58.20;;;;;;5031056;28;20208;-45
2022/06/07 05:32:06;;;;;;;2.07;1.87;;;21.90;57.90;;;;;;5032808;28;20438;-44
2022/06/07 05:34:32;;;;;;;2.00;1.70;;;22.10;57.70;;;;;;5033057;28;20424;-48
2022/06/07 05:36:57;;;;;;;2.20;1.87;;;22.20;57.50;;;;;;5032402;28;20276;-45
2022/06/07 05:39:28;;;;;;;3.03;1.93;;;22.20;57.40;;;;;;5033306;28;20193;-45
2022/06/07 05:41:54;;;;;;;2.10;1.90;;;22.30;57.40;;;;;;5032221;28;20243;-44
2022/06/07 05:44:21;;;;;;;3.23;2.10;;;22.30;57.30;;;;;;5033197;28;20486;-45
2022/06/07 05:46:48;;;;;;;3.10;2.23;;;22.30;57.20;;;;;;5030767;28;20424;-47
2022/06/07 05:49:14;;;;;;;2.13;1.90;;;22.40;57.20;;;;;;5032927;28;20518;-44
2022/06/07 05:51:40;;;;;;;1.97;1.80;;;22.40;57.20;;;;;;5032075;28;20428;-46
2022/06/07 05:54:07;;;;;;;1.90;1.80;;;22.40;57.10;;;;;;5033259;28;20428;-46
2022/06/07 05:56:33;;;;;;;2.27;1.80;;;22.50;57.20;;;;;;5031667;28;20420;-44
2022/06/07 05:58:59;;;;;;;3.93;1.90;;;22.50;57.10;;;;;;5032922;28;20474;-46
2022/06/07 06:01:26;;;;;;;1.53;1.33;;;22.40;56.90;;;;;;5031805;28;20471;-44
2022/06/07 06:03:55;;;;;;;2.50;2.10;;;22.00;57.90;;;;;;5032681;28;20487;-47
2022/06/07 06:06:20;;;;;;;3.17;2.10;;;21.80;58.40;;;;;;5031948;28;20455;-45
2022/06/07 06:11:32;;;;;;;2.27;2.07;;;21.80;58.90;;;;;;5031886;28;20196;-44
2022/06/07 06:13:58;;;;;;;2.83;2.07;;;21.80;59.30;;;;;;5030831;28;20435;-46
2022/06/07 06:16:24;;;;;;;1.80;1.70;;;21.70;59.70;;;;;;5031680;28;20932;-44
2022/06/07 06:18:52;;;;;;;2.00;1.80;;;21.80;59.80;;;;;;5032578;28;20232;-46
2022/06/07 06:21:20;;;;;;;2.13;1.97;;;21.80;59.60;;;;;;5031854;28;20424;-44
2022/06/07 06:23:46;;;;;;;4.53;2.20;;;21.60;59.80;;;;;;5032110;28;20536;-46
2022/06/07 06:26:14;;;;;;;3.23;2.00;;;21.90;59.60;;;;;;5031284;28;20527;-46
2022/06/07 06:28:41;;;;;;;2.10;1.83;;;22.10;58.50;;;;;;5032059;28;20231;-45
2022/06/07 06:31:08;;;;;;;1.80;1.70;;;22.40;57.80;;;;;;5031575;28;20440;-45
2022/06/07 06:33:38;;;;;;;1.73;1.63;;;22.60;57.20;;;;;;5032259;28;20853;-45
2022/06/07 06:36:06;;;;;;;3.50;2.13;;;22.70;56.70;;;;;;5031398;28;20460;-44
2022/06/07 06:38:32;;;;;;;1.90;1.77;;;22.90;55.70;;;;;;5032089;28;20435;-45
2022/06/07 06:40:59;;;;;;;1.97;1.60;;;23.10;54.90;;;;;;5028931;28;20432;-45
2022/06/07 06:43:24;;;;;;;3.40;2.03;;;23.20;54.10;;;;;;5031613;28;20923;-47
2022/06/07 06:45:50;;;;;;;2.13;1.93;;;23.30;54.00;;;;;;5031197;28;20423;-45
2022/06/07 06:48:16;;;;;;;2.80;2.00;;;23.10;54.90;;;;;;5031974;28;20190;-45
2022/06/07 06:50:42;;;;;;;2.60;2.40;;;23.00;55.00;;;;;;5031147;28;20764;-45
2022/06/07 06:53:08;;;;;;;5.07;2.07;;;23.10;55.60;;;;;;5031403;28;20536;-44
2022/06/07 06:55:34;;;;;;;2.70;1.73;;;23.20;55.00;;;;;;5031235;28;20570;-44
2022/06/07 06:57:59;;;;;;;4.80;2.20;;;23.50;53.50;;;;;;5031103;28;20189;-44
2022/06/07 07:00:26;;;;;;;6.30;1.97;;;23.70;53.20;;;;;;5031498;28;20463;-48
2022/06/07 07:02:53;;;;;;;1.83;1.70;;;23.90;52.70;;;;;;5030852;28;20225;-45
2022/06/07 07:05:19;;;;;;;3.57;1.90;;;24.10;52.10;;;;;;5031472;28;20487;-47
2022/06/07 07:07:46;;;;;;;2.20;2.00;;;24.20;52.00;;;;;;5028821;28;20451;-44
2022/06/07 07:10:12;;;;;;;2.70;1.93;;;24.20;52.00;;;;;;5031220;28;20443;-44
2022/06/07 07:12:38;;;;;;;2.03;1.93;;;24.30;51.70;;;;;;5030758;28;20428;-44
2022/06/07 07:15:07;;;;;;;2.07;1.90;;;24.50;52.20;;;;;;5031436;28;20982;-44
2022/06/07 07:17:33;;;;;;;1.60;1.20;;;24.60;51.60;;;;;;5030336;28;20472;-45
2022/06/07 07:19:59;;;;;;;1.47;1.37;;;24.70;50.40;;;;;;5031294;28;20912;-45
2022/06/07 07:22:25;;;;;;;1.90;1.13;;;24.70;48.50;;;;;;5030616;28;20198;-45
2022/06/07 07:24:51;;;;;;;2.53;1.60;;;24.60;48.60;;;;;;5031080;28;20224;-44
2022/06/07 07:27:19;;;;;;;2.23;1.50;;;24.50;47.80;;;;;;5030135;28;20432;-44
2022/06/07 07:29:44;;;;;;;5.07;1.20;;;24.10;47.40;;;;;;5031033;28;20201;-43
2022/06/07 07:32:10;;;;;;;3.30;1.27;;;24.20;47.80;;;;;;5030355;28;20431;-44
2022/06/07 07:34:36;;;;;;;2.40;1.00;;;24.20;47.60;;;;;;5029393;28;20189;-44
2022/06/07 07:37:02;;;;;;;2.43;1.50;;;24.10;47.90;;;;;;5029961;28;20641;-43
2022/06/07 07:39:28;;;;;;;2.40;1.23;;;24.40;48.00;;;;;;5030758;28;20490;-44
2022/06/07 07:41:55;;;;;;;2.17;1.13;;;24.50;47.60;;;;;;5030164;28;20436;-45
2022/06/07 07:44:21;;;;;;;2.60;1.10;;;24.70;46.50;;;;;;5030949;28;20312;-44
2022/06/07 07:46:48;;;;;;;1.10;1.07;;;24.80;46.50;;;;;;5029829;28;20958;-44
2022/06/07 07:49:15;;;;;;;1.73;1.50;;;24.90;46.30;;;;;;5030741;28;20479;-44
2022/06/07 07:51:44;;;;;;;2.27;1.30;;;24.90;46.00;;;;;;5029883;28;20432;-44
2022/06/07 07:54:12;;;;;;;1.80;1.10;;;25.10;46.00;;;;;;5030728;28;21200;-44
2022/06/07 07:56:38;;;;;;;2.80;1.50;;;25.20;45.80;;;;;;5029689;28;20430;-45
2022/06/07 07:59:05;;;;;;;1.90;1.80;;;25.30;45.80;;;;;;5030616;28;20463;-44
2022/06/07 08:01:31;;;;;;;2.20;1.57;;;25.40;45.90;;;;;;5028206;28;20479;-44
2022/06/07 08:03:59;;;;;;;1.87;1.23;;;25.50;45.30;;;;;;5030342;28;21033;-45
2022/06/07 08:06:27;;;;;;;2.80;1.00;;;25.40;44.90;;;;;;5029477;28;20456;-44
2022/06/07 08:08:55;;;;;;;1.50;1.40;;;25.40;44.80;;;;;;5029993;28;20440;-44
2022/06/07 08:11:23;;;;;;;1.30;1.20;;;25.40;46.00;;;;;;5029641;28;20444;-44
2022/06/07 08:13:49;;;;;;;1.40;1.30;;;25.40;46.90;;;;;;5030256;28;20481;-44
2022/06/07 08:16:15;;;;;;;1.33;1.23;;;25.60;45.80;;;;;;5029430;28;20417;-45
2022/06/07 08:18:41;;;;;;;2.30;1.40;;;25.70;45.40;;;;;;5030218;28;20205;-44
2022/06/07 08:21:14;;;;;;;2.30;1.30;;;25.90;45.20;;;;;;5029580;28;20920;-45
2022/06/07 08:23:40;;;;;;;1.30;1.20;;;25.90;44.60;;;;;;5030084;28;20567;-44
2022/06/07 08:26:08;;;;;;;2.60;1.70;;;25.90;44.60;;;;;;5029283;28;20478;-46
2022/06/07 08:28:34;;;;;;;1.17;1.07;;;26.10;43.90;;;;;;5028342;28;20443;-45
2022/06/07 08:31:00;;;;;;;1.77;1.23;;;26.20;43.90;;;;;;5029611;28;20419;-44
2022/06/07 08:38:59;;;;;;;1.50;1.23;;;26.00;45.00;;;;;;5030194;28;20482;-44
2022/06/07 08:41:47;;;;;;;3.23;1.13;;;26.00;43.60;;;;;;5029106;28;20445;-45
2022/06/07 08:44:26;;;;;;;1.60;1.27;;;26.10;42.60;;;;;;5030261;28;20483;-45
2022/06/07 08:46:55;;;;;;;3.80;1.60;;;26.10;43.10;;;;;;5029069;28;20505;-44
2022/06/07 08:49:21;;;;;;;1.77;1.60;;;26.20;43.30;;;;;;5029660;28;20443;-45
2022/06/07 08:51:58;;;;;;;1.30;1.20;;;26.30;43.10;;;;;;5029434;28;20424;-44
2022/06/07 08:54:30;;;;;;;1.23;1.20;;;26.40;42.80;;;;;;5029667;28;20832;-44
2022/06/07 08:57:11;;;;;;;1.50;1.30;;;26.40;43.20;;;;;;5026987;28;20431;-44
2022/06/07 08:59:36;;;;;;;1.27;1.17;;;26.50;43.10;;;;;;5029534;28;20423;-46
2022/06/07 09:02:20;;;;;;;2.33;1.47;;;26.50;42.70;;;;;;5029347;28;20436;-45
2022/06/07 09:04:46;;;;;;;4.60;1.20;;;26.50;42.40;;;;;;5032103;28;20227;-46
2022/06/07 09:07:16;;;;;;;2.03;1.10;;;26.40;42.60;;;;;;5032678;28;20428;-45
2022/06/07 09:12:34;;;;;;;3.30;1.53;;;26.70;41.20;;;;;;5033293;28;20435;-47
2022/06/07 09:14:59;;;;;;;1.30;1.20;;;26.70;41.80;;;;;;5033669;28;21140;-46
2022/06/07 09:17:35;;;;;;;1.30;1.20;;;26.80;41.60;;;;;;5032347;28;20507;-45
2022/06/07 09:20:07;;;;;;;0.90;0.90;;;26.90;41.70;;;;;;5033567;28;20288;-49
2022/06/07 09:22:54;;;;;;;1.60;1.13;;;26.90;42.30;;;;;;5031282;28;20436;-45
2022/06/07 09:25:42;;;;;;;1.30;1.20;;;27.10;41.00;;;;;;5032798;28;20998;-46
2022/06/07 09:28:14;;;;;;;1.57;1.40;;;27.10;40.90;;;;;;5033267;28;20812;-47
2022/06/07 09:30:46;;;;;;;3.03;1.83;;;26.80;42.00;;;;;;5033167;28;20455;-44
2022/06/07 09:34:03;;;;;;;1.80;1.20;;;27.00;42.40;;;;;;5033183;28;20443;-44
2022/06/07 09:36:41;;;;;;;2.67;1.63;;;27.10;41.30;;;;;;5029220;28;20444;-45
2022/06/07 09:39:20;;;;;;;1.97;1.33;;;27.00;41.30;;;;;;5033102;28;20455;-46
2022/06/07 09:41:51;;;;;;;2.30;1.17;;;27.10;40.80;;;;;;5032617;28;20439;-45
2022/06/07 09:44:21;;;;;;;3.70;1.53;;;27.30;40.80;;;;;;5033260;28;20491;-45
2022/06/07 09:47:12;;;;;;;3.37;1.20;;;27.30;40.80;;;;;;5031928;28;20530;-45
2022/06/07 09:49:48;;;;;;;1.50;1.40;;;27.30;41.00;;;;;;5026255;28;20451;-45
2022/06/07 09:52:24;;;;;;;1.67;1.17;;;27.10;40.70;;;;;;5032347;28;20530;-45
2022/06/07 09:55:06;;;;;;;3.10;1.60;;;27.10;41.80;;;;;;5032822;28;20470;-44
2022/06/07 09:57:32;;;;;;;1.53;1.20;;;27.10;41.30;;;;;;5031767;28;20513;-45
2022/06/07 10:00:35;;;;;;;5.13;1.40;;;26.90;41.40;;;;;;5032675;28;20503;-45
2022/06/07 10:03:25;;;;;;;1.87;1.47;;;26.70;42.20;;;;;;5032130;28;20208;-45
2022/06/07 10:06:11;;;;;;;2.30;1.60;;;26.50;42.60;;;;;;5031704;28;20440;-46
2022/06/07 10:08:45;;;;;;;4.37;1.40;;;26.00;43.70;;;;;;5032417;28;20420;-45
2022/06/07 10:11:45;;;;;;;1.80;1.70;;;25.50;45.80;;;;;;5031771;28;20459;-44
2022/06/07 10:14:34;;;;;;;2.23;1.70;;;25.60;45.40;;;;;;5023236;28;20444;-46
2022/06/07 10:17:28;;;;;;;1.73;1.40;;;26.10;44.60;;;;;;5028882;28;20439;-44
2022/06/07 10:20:10;;;;;;;2.20;1.50;;;26.60;43.80;;;;;;5032364;28;20428;-44
2022/06/07 10:23:05;;;;;;;2.80;1.70;;;27.10;42.70;;;;;;5031728;28;20431;-45
2022/06/07 10:26:08;;;;;;;1.70;1.60;;;27.40;42.20;;;;;;5031885;28;20504;-46
2022/06/07 10:28:46;;;;;;;3.80;1.77;;;27.40;41.60;;;;;;5032101;28;20432;-44
2022/06/07 10:31:41;;;;;;;1.93;1.50;;;27.40;41.70;;;;;;5031497;28;20858;-45
2022/06/07 10:34:21;;;;;;;3.03;1.80;;;27.30;41.30;;;;;;5032198;28;20872;-45
2022/06/07 10:37:05;;;;;;;2.50;1.80;;;27.30;42.20;;;;;;5031140;28;20481;-45
2022/06/07 10:40:03;;;;;;;2.97;2.00;;;27.20;42.90;;;;;;5031932;28;20432;-44
2022/06/07 10:42:34;;;;;;;1.60;1.47;;;26.90;43.90;;;;;;5014275;28;20443;-44
2022/06/07 10:45:20;;;;;;;1.83;1.50;;;26.70;44.30;;;;;;5031296;28;20490;-44
2022/06/07 10:48:19;;;;;;;1.83;1.67;;;26.90;44.70;;;;;;5031117;28;20455;-45
2022/06/07 10:50:55;;;;;;;3.00;2.00;;;27.10;44.70;;;;;;5031293;28;20432;-44
2022/06/07 10:53:39;;;;;;;3.20;1.60;;;27.40;43.70;;;;;;5031800;28;20423;-45
2022/06/07 10:56:28;;;;;;;2.90;1.60;;;27.90;44.20;;;;;;5030584;28;20451;-46
2022/06/07 10:58:55;;;;;;;1.70;1.60;;;28.00;42.10;;;;;;5031547;28;20862;-45
2022/06/07 11:01:20;;;;;;;1.63;1.30;;;28.10;41.50;;;;;;5030538;28;20459;-48
2022/06/07 11:04:01;;;;;;;5.43;1.57;;;28.20;41.20;;;;;;5031598;28;20472;-46
2022/06/07 11:09:40;;;;;;;2.10;1.70;;;27.50;43.10;;;;;;5030849;28;20466;-46
2022/06/07 11:12:17;;;;;;;2.20;1.87;;;27.20;43.40;;;;;;5030924;28;20442;-45
2022/06/07 11:15:09;;;;;;;2.00;1.90;;;27.40;43.20;;;;;;5031355;28;20463;-46
2022/06/07 11:17:47;;;;;;;3.43;2.00;;;27.50;42.40;;;;;;5030702;28;20440;-45
2022/06/07 11:20:27;;;;;;;1.70;1.60;;;27.60;42.30;;;;;;5031237;28;20436;-48
2022/06/07 11:22:56;;;;;;;3.00;1.50;;;27.60;43.40;;;;;;5030763;28;20446;-45
2022/06/07 11:25:43;;;;;;;1.40;1.30;;;27.90;44.00;;;;;;5030828;28;20483;-48
2022/06/07 11:28:15;;;;;;;2.60;1.77;;;28.10;43.10;;;;;;5030758;28;20555;-47
2022/06/07 11:30:44;;;;;;;2.10;1.53;;;28.30;41.70;;;;;;5030734;28;20451;-48
2022/06/07 11:33:43;;;;;;;2.07;1.87;;;28.30;41.20;;;;;;5031069;28;20570;-45
2022/06/07 11:36:23;;;;;;;1.40;1.30;;;28.60;40.50;;;;;;5013640;28;20440;-48
2022/06/07 11:38:55;;;;;;;5.63;1.80;;;28.70;40.50;;;;;;5030226;28;20442;-44
2022/06/07 11:41:39;;;;;;;1.70;1.60;;;28.80;40.10;;;;;;5030134;28;20432;-46
2022/06/07 11:44:10;;;;;;;1.53;1.43;;;28.70;39.80;;;;;;5030806;28;20540;-45
2022/06/07 11:46:36;;;;;;;1.90;1.53;;;28.60;39.60;;;;;;5029942;28;20440;-49
2022/06/07 11:49:20;;;;;;;2.23;1.70;;;28.50;39.70;;;;;;5030892;28;20431;-44
2022/06/07 11:52:01;;;;;;;2.57;1.80;;;28.50;39.50;;;;;;5029752;28;20235;-45
2022/06/07 11:54:29;;;;;;;2.00;1.50;;;28.40;39.40;;;;;;5030765;28;20915;-44
2022/06/07 11:57:02;;;;;;;1.73;1.63;;;28.40;40.80;;;;;;5029529;28;20942;-46
2022/06/07 11:59:34;;;;;;;1.87;1.73;;;28.50;41.30;;;;;;5030250;28;20539;-46
2022/06/07 12:02:00;;;;;;;1.90;1.57;;;28.40;41.50;;;;;;5029990;28;20479;-45
2022/06/07 12:04:36;;;;;;;1.60;1.50;;;28.40;40.90;;;;;;5028935;28;20479;-48
2022/06/07 12:07:34;;;;;;;1.70;1.60;;;28.40;41.00;;;;;;5029530;28;20207;-48
2022/06/07 12:10:19;;;;;;;2.30;1.70;;;28.40;41.50;;;;;;5030137;28;20480;-48
2022/06/07 12:12:57;;;;;;;2.30;1.60;;;28.40;41.70;;;;;;5029770;28;20424;-50
2022/06/07 12:15:27;;;;;;;1.77;1.60;;;28.40;42.70;;;;;;5030249;28;20440;-48
2022/06/07 12:18:03;;;;;;;1.30;1.20;;;28.50;41.20;;;;;;5029868;28;20432;-45
2022/06/07 12:20:38;;;;;;;2.27;1.40;;;28.80;40.10;;;;;;5030104;28;20525;-45
2022/06/07 12:23:17;;;;;;;2.10;1.30;;;28.90;40.60;;;;;;5029909;28;20510;-45
2022/06/07 12:25:54;;;;;;;1.43;1.33;;;28.90;40.20;;;;;;5029193;28;20836;-46
2022/06/07 12:28:34;;;;;;;2.20;1.53;;;29.00;39.20;;;;;;5030291;28;20431;-45
2022/06/07 12:31:12;;;;;;;3.30;1.80;;;28.90;39.20;;;;;;5027685;28;20477;-45
2022/06/07 12:33:37;;;;;;;2.40;1.27;;;29.00;39.90;;;;;;5030048;28;20428;-47
2022/06/07 12:36:23;;;;;;;1.93;1.50;;;29.10;38.90;;;;;;5029409;28;20926;-46
2022/06/07 12:38:50;;;;;;;1.90;1.80;;;29.20;38.90;;;;;;5029183;28;20204;-45
2022/06/07 12:41:25;;;;;;;2.47;1.33;;;29.20;38.60;;;;;;5029265;28;20428;-47
2022/06/07 12:44:00;;;;;;;1.73;1.60;;;29.10;39.80;;;;;;5029855;28;20974;-47
2022/06/07 12:46:29;;;;;;;1.87;1.50;;;29.10;39.50;;;;;;5028958;28;20432;-49
2022/06/07 12:48:56;;;;;;;1.50;1.40;;;29.10;38.10;;;;;;5028498;28;20479;-46
2022/06/07 12:51:26;;;;;;;2.30;1.60;;;29.10;37.60;;;;;;5029079;28;20462;-46
2022/06/07 12:54:02;;;;;;;1.10;1.10;;;29.20;38.00;;;;;;5030030;28;20816;-45
2022/06/07 12:56:31;;;;;;;5.03;1.50;;;29.10;39.30;;;;;;5028696;28;20463;-49
2022/06/07 12:58:58;;;;;;;2.40;1.50;;;29.20;39.70;;;;;;5028613;28;20428;-47
2022/06/07 13:01:35;;;;;;;2.93;1.30;;;29.20;38.50;;;;;;5028841;28;20490;-45
2022/06/07 13:04:32;;;;;;;1.37;1.27;;;29.20;39.40;;;;;;5029567;28;20653;-46
2022/06/07 13:07:16;;;;;;;1.53;1.20;;;29.20;37.70;;;;;;5021026;28;20822;-45
2022/06/07 13:09:48;;;;;;;3.70;1.60;;;29.30;38.80;;;;;;5029519;28;20955;-45
2022/06/07 13:12:44;;;;;;;1.97;1.80;;;29.30;37.70;;;;;;5028841;28;20444;-45
2022/06/07 13:15:20;;;;;;;1.60;1.43;;;29.40;38.10;;;;;;5028368;28;20569;-45
2022/06/07 13:18:00;;;;;;;2.47;1.60;;;29.50;37.00;;;;;;5029125;28;20954;-49
2022/06/07 13:20:43;;;;;;;1.50;1.40;;;29.50;37.50;;;;;;5029485;28;20424;-44
2022/06/07 13:23:38;;;;;;;2.60;1.60;;;29.30;37.30;;;;;;5029423;28;20447;-45
2022/06/07 13:26:22;;;;;;;2.00;1.40;;;29.50;37.30;;;;;;5023345;28;20825;-44
2022/06/07 13:29:15;;;;;;;1.77;1.27;;;29.60;38.20;;;;;;5029617;28;20970;-46